Главная страница
METAR-TAF:

METAR-TAF

Аэропорты :

Челябинск, Россия

широта: 55-10N, долгота: 061-24E, высота над уровнем моря: м

Текущие метеонаблюдения

Эта сводка был подготовлена 35 минут назад, в 16:30 UTC
Ветер 10 Узел от южный-юго-западный
Температура 20°C
Влажность 56%
Давление 1016 hPa
Видимость 10 км и более
небольшая облачность на высоте 4000 фута, Кучево-дождевые.

METAR: USCC 191630Z 21005MPS 9999 FEW040CB 20/11 Q1016 R27/000060 NOSIG RMK QFE742

Время: 22:05 (17:05 UTC)

Прогноз

Эта сводка был подготовлена 3 часа и 5 минут назад, в 14:00 UTC
Прогноз действительный с 19-го 15 UTC до 20-го 15 UTC
Ветер 12 Узел от западный-юго-западный
Видимость 10 км и более
Отдельные облака на высоте 3000 фута
временами
С 19-го 15 UTC до 19-го 18 UTC
Ветер 8 Узел от южный
Видимость: 3100 м
Отдельные облака на высоте 1100 фута
дым

TAF: USCC 191400Z 1915/2015 24006MPS 9999 SCT030 TEMPO 1915/1918 18004MPS 3100 FU SCT011

Метеонаблюдения и прогнозы для более 4000 аэропортов (сводки METAR и TAF).

Имеющиеся станции представлены на карте желтыми и красными точками.

Чтобы увидеть название станции, наведите на нее мышь.

Затем щелкните, чтобы увидеть метеонаблюдения и метеопрогнозы.

Управление картой: чтобы увеличить масштаб, щелкните зеленые кнопки с черным крестиком; чтобы уменьшить масштаб, щелкните зеленую кнопку с тире; для просмотра соседних карт щелкайте зеленые стрелки.


METAR-TAF: